Shaw, Missouri
Current Conditions -  °F | °C
As of 2:54 AM on Saturday 22 Nov 2014 (Local Time) from KCOU Reporting Station
Overcast Overcast  
Wind Chill: 43°   Ceiling: 2500
Heat Index: 48°   Visibility: 10mi
Dew Point: 44°   Wind: 12mph
Humidity: 86%   Direction: 170°S
Pressure: 30.1"   Gusts: NA
Location:  39.0235°N, 92.2896°W
Report Text: KCOU 220854Z AUTO 17010KT 10SM BKN025 OVC038 09/07 A3010 RMK AO2 RAB04E13 SLP194 P0000 60000 T00890067 56012
Loading
Personal Weather Stations






























Interactive Weather Map New forecast layout! Learn more

10-Day Weather Forecast

Advertisements
Track Severe Weather on mobile